Biggs Army Air Field (Fort Bliss)
KBIF : rendu visible

Aérodrome :











RETROUVEZ-NOUS SUR...

 
LOGIN :

S'inscrire | Disclaimer

   EN    FR    IT 

 









Légende :    VFR   VFR Marginal   IFR   IFR Intensif   IFR Très Intensif
Visi : 
Plafond : 
>= 8 km
>= 3000ft
5 à 8 km
1000 à 3000 ft
1500m à 5 km
500 à 1000 ft
800 à 1500m
200 à 500 ft
< 800m
< 200 ft
Symboles :   Orages  Brouillard  Fortes neiges  Fortes précipitations  Vent > 20 kt






- Altitude de l'aérodrome : 3946 ft


KBIF - Biggs Army Air Field (Fort Bliss)

DERNIER METAR :
  • 311958Z AUTO 00000KT 10SM CLR 30/01 A3009 RMK AO2 SLP122 T03020013 $

METARs EXPIRÉS :
  • 311858Z AUTO 08008KT 10SM FEW310 30/02 A3011 RMK AO2 LTG DSNT NE SLP129 T03010015 $
  • 311758Z AUTO 09008KT 10SM FEW290 29/02 A3013 RMK AO2 SLP136 T02890022 10290 20177 57014 $

TAF TAF KBIF
Valide du 31 à 14h jusqu'au 01 à 20h UTC


311400Z 3114/0120 13005KT 9999 SKC QNH3015INS
BECMG 3121/3122 12012G18KT 9999 SKC QNH3003INS
BECMG 0101/0102 12004KT 9999 SKC QNH3002INS
BECMG 0112/0113 10004KT 9999 SKC QNH3014INS TX33/3121Z TN16/0112Z
FIR KZAB / Amérique du Nord



MET'MAP, la Météo Aéronautique d'un coup d'oeil ! - Copyright ORBIFLY Décembre 2007 - Disclaimer

ORBIFLY MET'MAP TEAM :

Programmation & Développement : Alexandra Zaïnal
Sur une idée originale de : Baudouin d'Aumeries
Assistance à la programmation : Marc-Olivier Méhu
Soutien technique & logistique : Manuel Goepfert

Contact : metmap@orbifly.com




SOURCES & CREDITS :

   NOAA       Earth
Advisory